Terminal Aerodrome Forecast
Issued by NWS Wilmington, OH

Current Version | Previous Version | Graphics & Text | Print | Product List | Glossary On
Versions: 1 2 3 4 5 6 7 8 9 10 11 12 13 14 15 16 17 18 19 20 21 22 23 24 25 26 27 28 29 30 31 32 33
000
FTUS41 KILN 180500
TAFCVG
TAF
KCVG 180535Z 1806/1912 10005KT 6SM BR VCSH OVC022
     FM180800 09004KT 5SM BR VCSH OVC015
     FM181100 07005KT 4SM BR VCSH OVC007
     FM181400 05006KT 5SM HZ VCSH OVC015
     FM181700 03006KT P6SM VCSH OVC025
     FM181900 36005KT P6SM VCSH BKN040
     FM190100 VRB03KT P6SM BKN100
     FM190900 19003KT 5SM BR BKN250=

USA.gov is the U.S. government's official web portal to all federal, state and local government web resources and services.